sensor_id;sensor_type;location;lat;lon;timestamp;temperature;humidity
30150;DHT22;16962;48.646;9.026;2024-03-02T00:02:45;5.00;1.00
30150;DHT22;16962;48.646;9.026;2024-03-02T00:05:33;4.90;1.00
30150;DHT22;16962;48.646;9.026;2024-03-02T00:08:24;4.90;1.00
30150;DHT22;16962;48.646;9.026;2024-03-02T00:11:13;5.00;1.00
30150;DHT22;16962;48.646;9.026;2024-03-02T00:14:03;5.00;1.00
30150;DHT22;16962;48.646;9.026;2024-03-02T00:16:51;4.90;99.90
30150;DHT22;16962;48.646;9.026;2024-03-02T00:19:40;4.90;99.90
30150;DHT22;16962;48.646;9.026;2024-03-02T00:22:28;5.00;99.90
30150;DHT22;16962;48.646;9.026;2024-03-02T00:25:15;4.90;99.90
30150;DHT22;16962;48.646;9.026;2024-03-02T00:28:04;4.90;99.90
30150;DHT22;16962;48.646;9.026;2024-03-02T00:33:47;4.80;99.90
30150;DHT22;16962;48.646;9.026;2024-03-02T00:36:36;4.80;99.90
30150;DHT22;16962;48.646;9.026;2024-03-02T00:39:24;4.70;99.90
30150;DHT22;16962;48.646;9.026;2024-03-02T00:42:13;4.70;99.90
30150;DHT22;16962;48.646;9.026;2024-03-02T00:45:00;4.70;99.90
30150;DHT22;16962;48.646;9.026;2024-03-02T00:47:47;4.60;99.90
30150;DHT22;16962;48.646;9.026;2024-03-02T00:50:38;4.50;99.90
30150;DHT22;16962;48.646;9.026;2024-03-02T00:53:26;4.40;1.00
30150;DHT22;16962;48.646;9.026;2024-03-02T00:56:14;4.40;1.00
30150;DHT22;16962;48.646;9.026;2024-03-02T00:59:02;4.30;1.00
30150;DHT22;16962;48.646;9.026;2024-03-02T01:01:50;4.40;1.00
30150;DHT22;16962;48.646;9.026;2024-03-02T01:04:38;4.40;1.00
30150;DHT22;16962;48.646;9.026;2024-03-02T01:07:25;4.30;29.30
30150;DHT22;16962;48.646;9.026;2024-03-02T01:10:13;4.40;99.90
30150;DHT22;16962;48.646;9.026;2024-03-02T01:13:01;4.40;99.90
30150;DHT22;16962;48.646;9.026;2024-03-02T01:15:50;4.50;99.90
30150;DHT22;16962;48.646;9.026;2024-03-02T01:18:41;4.60;99.90
30150;DHT22;16962;48.646;9.026;2024-03-02T01:21:32;4.70;99.90
30150;DHT22;16962;48.646;9.026;2024-03-02T01:24:20;4.70;99.90
30150;DHT22;16962;48.646;9.026;2024-03-02T01:27:07;4.60;99.90
30150;DHT22;16962;48.646;9.026;2024-03-02T01:29:58;4.50;99.90
30150;DHT22;16962;48.646;9.026;2024-03-02T01:32:47;4.50;99.90
30150;DHT22;16962;48.646;9.026;2024-03-02T01:35:35;4.50;99.90
30150;DHT22;16962;48.646;9.026;2024-03-02T01:38:22;4.50;1.00
30150;DHT22;16962;48.646;9.026;2024-03-02T01:41:10;4.50;1.00
30150;DHT22;16962;48.646;9.026;2024-03-02T01:43:58;4.40;1.00
30150;DHT22;16962;48.646;9.026;2024-03-02T01:46:46;4.30;1.00
30150;DHT22;16962;48.646;9.026;2024-03-02T01:49:33;4.20;1.00
30150;DHT22;16962;48.646;9.026;2024-03-02T01:52:21;4.20;99.90
30150;DHT22;16962;48.646;9.026;2024-03-02T01:55:09;4.30;99.90
30150;DHT22;16962;48.646;9.026;2024-03-02T01:57:57;4.60;1.00
30150;DHT22;16962;48.646;9.026;2024-03-02T02:00:47;4.60;99.90
30150;DHT22;16962;48.646;9.026;2024-03-02T02:03:35;4.70;99.90
30150;DHT22;16962;48.646;9.026;2024-03-02T02:06:24;4.70;99.90
30150;DHT22;16962;48.646;9.026;2024-03-02T02:09:12;4.80;99.90
30150;DHT22;16962;48.646;9.026;2024-03-02T02:12:00;4.80;99.90
30150;DHT22;16962;48.646;9.026;2024-03-02T02:14:48;4.80;99.90
30150;DHT22;16962;48.646;9.026;2024-03-02T02:17:38;4.90;97.10
30150;DHT22;16962;48.646;9.026;2024-03-02T02:20:26;4.90;32.80
30150;DHT22;16962;48.646;9.026;2024-03-02T02:23:15;5.00;1.00
30150;DHT22;16962;48.646;9.026;2024-03-02T02:26:04;5.00;1.00
30150;DHT22;16962;48.646;9.026;2024-03-02T02:28:54;5.00;1.00
30150;DHT22;16962;48.646;9.026;2024-03-02T02:31:42;4.90;99.90
30150;DHT22;16962;48.646;9.026;2024-03-02T02:34:29;4.80;99.90
30150;DHT22;16962;48.646;9.026;2024-03-02T02:37:18;4.80;99.90
30150;DHT22;16962;48.646;9.026;2024-03-02T02:40:07;4.80;99.90
30150;DHT22;16962;48.646;9.026;2024-03-02T02:42:57;4.90;99.90
30150;DHT22;16962;48.646;9.026;2024-03-02T02:45:44;4.90;99.90
30150;DHT22;16962;48.646;9.026;2024-03-02T02:48:32;4.90;99.90
30150;DHT22;16962;48.646;9.026;2024-03-02T02:51:19;4.80;99.90
30150;DHT22;16962;48.646;9.026;2024-03-02T02:54:07;4.60;99.90
30150;DHT22;16962;48.646;9.026;2024-03-02T02:56:54;4.50;99.90
30150;DHT22;16962;48.646;9.026;2024-03-02T02:59:42;4.50;99.90
30150;DHT22;16962;48.646;9.026;2024-03-02T03:02:29;4.50;99.90
30150;DHT22;16962;48.646;9.026;2024-03-02T03:05:17;4.50;1.00
30150;DHT22;16962;48.646;9.026;2024-03-02T03:08:05;4.40;1.00
30150;DHT22;16962;48.646;9.026;2024-03-02T03:11:00;4.30;1.00
30150;DHT22;16962;48.646;9.026;2024-03-02T03:13:49;4.20;1.00
30150;DHT22;16962;48.646;9.026;2024-03-02T03:16:39;4.30;99.90
30150;DHT22;16962;48.646;9.026;2024-03-02T03:19:28;4.50;99.90
30150;DHT22;16962;48.646;9.026;2024-03-02T03:22:17;4.50;99.90
30150;DHT22;16962;48.646;9.026;2024-03-02T03:25:07;4.60;99.90
30150;DHT22;16962;48.646;9.026;2024-03-02T03:27:57;4.50;99.90
30150;DHT22;16962;48.646;9.026;2024-03-02T03:30:46;4.50;99.90
30150;DHT22;16962;48.646;9.026;2024-03-02T03:33:33;4.60;99.90
30150;DHT22;16962;48.646;9.026;2024-03-02T03:36:21;4.60;99.90
30150;DHT22;16962;48.646;9.026;2024-03-02T03:39:09;4.60;99.90
30150;DHT22;16962;48.646;9.026;2024-03-02T03:41:57;4.40;99.90
30150;DHT22;16962;48.646;9.026;2024-03-02T03:44:45;4.40;99.90
30150;DHT22;16962;48.646;9.026;2024-03-02T03:47:33;4.20;93.10
30150;DHT22;16962;48.646;9.026;2024-03-02T03:50:20;4.10;99.90
30150;DHT22;16962;48.646;9.026;2024-03-02T03:53:08;4.00;99.90
30150;DHT22;16962;48.646;9.026;2024-03-02T03:55:55;4.00;99.90
30150;DHT22;16962;48.646;9.026;2024-03-02T03:58:43;4.10;1.00
30150;DHT22;16962;48.646;9.026;2024-03-02T04:01:31;4.00;1.00
30150;DHT22;16962;48.646;9.026;2024-03-02T04:04:21;4.10;99.90
30150;DHT22;16962;48.646;9.026;2024-03-02T04:07:10;4.20;99.90
30150;DHT22;16962;48.646;9.026;2024-03-02T04:09:57;4.10;99.90
30150;DHT22;16962;48.646;9.026;2024-03-02T04:12:45;4.10;99.90
30150;DHT22;16962;48.646;9.026;2024-03-02T04:15:33;4.00;99.90
30150;DHT22;16962;48.646;9.026;2024-03-02T04:18:21;4.00;99.90
30150;DHT22;16962;48.646;9.026;2024-03-02T04:21:08;3.90;99.90
30150;DHT22;16962;48.646;9.026;2024-03-02T04:23:56;3.80;99.90
30150;DHT22;16962;48.646;9.026;2024-03-02T04:26:46;3.70;1.00
30150;DHT22;16962;48.646;9.026;2024-03-02T04:29:35;3.90;99.30
30150;DHT22;16962;48.646;9.026;2024-03-02T04:32:27;3.90;99.90
30150;DHT22;16962;48.646;9.026;2024-03-02T04:35:17;4.00;99.90
30150;DHT22;16962;48.646;9.026;2024-03-02T04:38:04;4.00;99.90
30150;DHT22;16962;48.646;9.026;2024-03-02T04:40:52;4.00;99.90
30150;DHT22;16962;48.646;9.026;2024-03-02T04:43:40;4.10;99.90
30150;DHT22;16962;48.646;9.026;2024-03-02T04:46:27;4.00;11.00
30150;DHT22;16962;48.646;9.026;2024-03-02T04:49:15;3.90;1.00
30150;DHT22;16962;48.646;9.026;2024-03-02T04:52:03;3.80;1.00
30150;DHT22;16962;48.646;9.026;2024-03-02T04:54:51;3.60;1.00
30150;DHT22;16962;48.646;9.026;2024-03-02T04:58:04;3.50;71.30
30150;DHT22;16962;48.646;9.026;2024-03-02T05:00:53;3.30;99.90
30150;DHT22;16962;48.646;9.026;2024-03-02T05:03:41;3.20;99.90
30150;DHT22;16962;48.646;9.026;2024-03-02T05:06:29;3.20;99.90
30150;DHT22;16962;48.646;9.026;2024-03-02T05:09:17;3.30;99.90
30150;DHT22;16962;48.646;9.026;2024-03-02T05:12:07;3.20;99.90
30150;DHT22;16962;48.646;9.026;2024-03-02T05:15:04;3.10;1.00
30150;DHT22;16962;48.646;9.026;2024-03-02T05:17:52;3.10;99.90
30150;DHT22;16962;48.646;9.026;2024-03-02T05:20:40;2.90;74.50
30150;DHT22;16962;48.646;9.026;2024-03-02T05:23:28;2.90;99.90
30150;DHT22;16962;48.646;9.026;2024-03-02T05:26:16;3.10;1.00
30150;DHT22;16962;48.646;9.026;2024-03-02T05:29:03;3.20;85.60
30150;DHT22;16962;48.646;9.026;2024-03-02T05:31:51;3.10;66.10
30150;DHT22;16962;48.646;9.026;2024-03-02T05:34:39;3.10;50.30
30150;DHT22;16962;48.646;9.026;2024-03-02T05:37:26;3.10;99.90
30150;DHT22;16962;48.646;9.026;2024-03-02T05:40:14;3.20;99.90
30150;DHT22;16962;48.646;9.026;2024-03-02T05:43:01;3.20;99.90
30150;DHT22;16962;48.646;9.026;2024-03-02T05:45:52;3.50;99.90
30150;DHT22;16962;48.646;9.026;2024-03-02T05:48:40;3.60;99.90
30150;DHT22;16962;48.646;9.026;2024-03-02T05:51:28;3.80;99.90
30150;DHT22;16962;48.646;9.026;2024-03-02T05:54:16;3.90;23.70
30150;DHT22;16962;48.646;9.026;2024-03-02T05:57:03;3.90;1.00
30150;DHT22;16962;48.646;9.026;2024-03-02T06:00:05;3.90;99.90
30150;DHT22;16962;48.646;9.026;2024-03-02T06:02:55;3.80;99.90
30150;DHT22;16962;48.646;9.026;2024-03-02T06:05:43;3.70;99.90
30150;DHT22;16962;48.646;9.026;2024-03-02T06:08:31;3.60;1.00
30150;DHT22;16962;48.646;9.026;2024-03-02T06:11:21;3.60;99.90
30150;DHT22;16962;48.646;9.026;2024-03-02T06:14:09;3.60;99.90
30150;DHT22;16962;48.646;9.026;2024-03-02T06:16:57;3.80;99.60
30150;DHT22;16962;48.646;9.026;2024-03-02T06:19:44;4.00;99.90
30150;DHT22;16962;48.646;9.026;2024-03-02T06:22:31;4.10;99.90
30150;DHT22;16962;48.646;9.026;2024-03-02T06:25:19;4.00;99.90
30150;DHT22;16962;48.646;9.026;2024-03-02T06:28:10;4.10;99.90
30150;DHT22;16962;48.646;9.026;2024-03-02T06:30:57;4.10;99.90
30150;DHT22;16962;48.646;9.026;2024-03-02T06:33:48;4.20;99.90
30150;DHT22;16962;48.646;9.026;2024-03-02T06:36:35;4.20;44.70
30150;DHT22;16962;48.646;9.026;2024-03-02T06:39:23;4.30;1.00
30150;DHT22;16962;48.646;9.026;2024-03-02T06:42:11;4.20;1.00
30150;DHT22;16962;48.646;9.026;2024-03-02T06:44:58;4.20;99.90
30150;DHT22;16962;48.646;9.026;2024-03-02T06:47:49;4.20;99.90
30150;DHT22;16962;48.646;9.026;2024-03-02T06:50:37;4.20;99.90
30150;DHT22;16962;48.646;9.026;2024-03-02T06:53:25;4.20;99.90
30150;DHT22;16962;48.646;9.026;2024-03-02T06:56:12;4.10;99.90
30150;DHT22;16962;48.646;9.026;2024-03-02T06:59:04;4.20;99.90
30150;DHT22;16962;48.646;9.026;2024-03-02T07:01:52;4.20;99.90
30150;DHT22;16962;48.646;9.026;2024-03-02T07:04:39;4.30;99.90
30150;DHT22;16962;48.646;9.026;2024-03-02T07:07:27;4.50;95.10
30150;DHT22;16962;48.646;9.026;2024-03-02T07:10:16;4.70;1.00
30150;DHT22;16962;48.646;9.026;2024-03-02T07:13:03;4.80;99.90
30150;DHT22;16962;48.646;9.026;2024-03-02T07:15:51;5.00;99.90
30150;DHT22;16962;48.646;9.026;2024-03-02T07:18:51;5.40;33.70
30150;DHT22;16962;48.646;9.026;2024-03-02T07:21:42;5.50;99.90
30150;DHT22;16962;48.646;9.026;2024-03-02T07:24:30;5.20;99.90
30150;DHT22;16962;48.646;9.026;2024-03-02T07:27:18;5.10;1.00
30150;DHT22;16962;48.646;9.026;2024-03-02T07:30:06;5.00;1.00
30150;DHT22;16962;48.646;9.026;2024-03-02T07:32:54;5.00;99.90
30150;DHT22;16962;48.646;9.026;2024-03-02T07:35:41;5.00;99.90
30150;DHT22;16962;48.646;9.026;2024-03-02T07:38:30;5.10;99.90
30150;DHT22;16962;48.646;9.026;2024-03-02T07:41:18;5.20;99.50
30150;DHT22;16962;48.646;9.026;2024-03-02T07:44:07;5.20;1.00
30150;DHT22;16962;48.646;9.026;2024-03-02T07:46:56;5.30;1.00
30150;DHT22;16962;48.646;9.026;2024-03-02T07:49:44;5.40;99.90
30150;DHT22;16962;48.646;9.026;2024-03-02T07:52:33;5.50;99.90
30150;DHT22;16962;48.646;9.026;2024-03-02T07:55:22;5.60;99.90
30150;DHT22;16962;48.646;9.026;2024-03-02T07:58:12;5.70;1.00
30150;DHT22;16962;48.646;9.026;2024-03-02T08:01:01;5.80;1.00
30150;DHT22;16962;48.646;9.026;2024-03-02T08:03:50;5.90;99.90
30150;DHT22;16962;48.646;9.026;2024-03-02T08:06:40;6.10;99.90
30150;DHT22;16962;48.646;9.026;2024-03-02T08:09:28;6.30;99.90
30150;DHT22;16962;48.646;9.026;2024-03-02T08:12:15;6.40;39.70
30150;DHT22;16962;48.646;9.026;2024-03-02T08:15:03;6.50;1.00
30150;DHT22;16962;48.646;9.026;2024-03-02T08:17:51;6.90;1.00
30150;DHT22;16962;48.646;9.026;2024-03-02T08:20:39;7.40;1.00
30150;DHT22;16962;48.646;9.026;2024-03-02T08:23:27;7.80;1.00
30150;DHT22;16962;48.646;9.026;2024-03-02T08:26:14;8.30;99.90
30150;DHT22;16962;48.646;9.026;2024-03-02T08:29:04;9.00;99.90
30150;DHT22;16962;48.646;9.026;2024-03-02T08:31:52;9.40;99.90
30150;DHT22;16962;48.646;9.026;2024-03-02T08:34:40;9.60;51.20
30150;DHT22;16962;48.646;9.026;2024-03-02T08:37:28;9.70;1.00
30150;DHT22;16962;48.646;9.026;2024-03-02T08:40:16;10.20;1.00
30150;DHT22;16962;48.646;9.026;2024-03-02T08:43:05;10.40;1.00
30150;DHT22;16962;48.646;9.026;2024-03-02T08:45:53;10.80;1.00
30150;DHT22;16962;48.646;9.026;2024-03-02T08:48:41;11.10;99.90
30150;DHT22;16962;48.646;9.026;2024-03-02T08:51:31;11.20;99.90
30150;DHT22;16962;48.646;9.026;2024-03-02T08:54:21;11.00;99.90
30150;DHT22;16962;48.646;9.026;2024-03-02T08:57:09;11.20;99.90
30150;DHT22;16962;48.646;9.026;2024-03-02T09:00:00;11.70;99.90
30150;DHT22;16962;48.646;9.026;2024-03-02T09:02:48;12.10;99.90
30150;DHT22;16962;48.646;9.026;2024-03-02T09:05:35;11.80;99.90
30150;DHT22;16962;48.646;9.026;2024-03-02T09:08:25;12.40;99.90
30150;DHT22;16962;48.646;9.026;2024-03-02T09:11:13;12.70;99.90
30150;DHT22;16962;48.646;9.026;2024-03-02T09:14:00;13.20;99.90
30150;DHT22;16962;48.646;9.026;2024-03-02T09:16:48;13.80;99.90
30150;DHT22;16962;48.646;9.026;2024-03-02T09:19:35;14.20;99.90
30150;DHT22;16962;48.646;9.026;2024-03-02T09:22:23;14.40;99.90
30150;DHT22;16962;48.646;9.026;2024-03-02T09:25:10;14.20;99.90
30150;DHT22;16962;48.646;9.026;2024-03-02T09:27:58;13.80;99.90
30150;DHT22;16962;48.646;9.026;2024-03-02T09:30:47;13.90;99.90
30150;DHT22;16962;48.646;9.026;2024-03-02T09:33:35;14.10;99.90
30150;DHT22;16962;48.646;9.026;2024-03-02T09:36:24;14.40;99.90
30150;DHT22;16962;48.646;9.026;2024-03-02T09:39:13;15.00;99.90
30150;DHT22;16962;48.646;9.026;2024-03-02T09:42:03;15.10;99.90
30150;DHT22;16962;48.646;9.026;2024-03-02T09:44:52;15.60;99.90
30150;DHT22;16962;48.646;9.026;2024-03-02T09:47:40;16.00;99.90
30150;DHT22;16962;48.646;9.026;2024-03-02T09:50:28;16.50;90.00
30150;DHT22;16962;48.646;9.026;2024-03-02T09:53:15;16.70;79.20
30150;DHT22;16962;48.646;9.026;2024-03-02T09:56:06;17.30;54.70
30150;DHT22;16962;48.646;9.026;2024-03-02T09:58:54;17.50;48.70
30150;DHT22;16962;48.646;9.026;2024-03-02T10:01:58;17.00;33.50
30150;DHT22;16962;48.646;9.026;2024-03-02T10:04:45;16.70;30.80
30150;DHT22;16962;48.646;9.026;2024-03-02T10:07:36;16.80;26.80
30150;DHT22;16962;48.646;9.026;2024-03-02T10:10:37;16.50;22.90
30150;DHT22;16962;48.646;9.026;2024-03-02T10:13:27;16.20;17.40
30150;DHT22;16962;48.646;9.026;2024-03-02T10:16:16;16.40;16.60
30150;DHT22;16962;48.646;9.026;2024-03-02T10:19:23;17.60;13.10
30150;DHT22;16962;48.646;9.026;2024-03-02T10:22:11;18.10;4.40
30150;DHT22;16962;48.646;9.026;2024-03-02T10:24:58;18.40;2.60
30150;DHT22;16962;48.646;9.026;2024-03-02T10:27:50;19.30;1.00
30150;DHT22;16962;48.646;9.026;2024-03-02T10:30:37;19.80;1.00
30150;DHT22;16962;48.646;9.026;2024-03-02T10:33:25;19.90;1.00
30150;DHT22;16962;48.646;9.026;2024-03-02T10:36:13;19.50;1.00
30150;DHT22;16962;48.646;9.026;2024-03-02T10:39:05;18.50;1.00
30150;DHT22;16962;48.646;9.026;2024-03-02T10:41:55;17.90;1.00
30150;DHT22;16962;48.646;9.026;2024-03-02T10:44:45;17.80;1.00
30150;DHT22;16962;48.646;9.026;2024-03-02T10:47:33;18.30;1.00
30150;DHT22;16962;48.646;9.026;2024-03-02T10:50:24;18.70;1.00
30150;DHT22;16962;48.646;9.026;2024-03-02T10:53:12;18.40;1.00
30150;DHT22;16962;48.646;9.026;2024-03-02T10:56:00;17.70;1.00
30150;DHT22;16962;48.646;9.026;2024-03-02T10:58:51;17.90;1.00
30150;DHT22;16962;48.646;9.026;2024-03-02T11:01:43;18.50;1.00
30150;DHT22;16962;48.646;9.026;2024-03-02T11:04:31;18.30;1.00
30150;DHT22;16962;48.646;9.026;2024-03-02T11:07:21;18.40;1.00
30150;DHT22;16962;48.646;9.026;2024-03-02T11:10:10;18.60;1.00
30150;DHT22;16962;48.646;9.026;2024-03-02T11:13:02;18.80;1.00
30150;DHT22;16962;48.646;9.026;2024-03-02T11:15:55;19.50;1.00
30150;DHT22;16962;48.646;9.026;2024-03-02T11:18:44;19.70;1.00
30150;DHT22;16962;48.646;9.026;2024-03-02T11:21:34;19.90;1.00
30150;DHT22;16962;48.646;9.026;2024-03-02T11:27:12;21.40;1.00
30150;DHT22;16962;48.646;9.026;2024-03-02T11:30:01;21.40;1.00
30150;DHT22;16962;48.646;9.026;2024-03-02T11:32:55;21.60;1.00
30150;DHT22;16962;48.646;9.026;2024-03-02T11:35:47;21.00;1.00
30150;DHT22;16962;48.646;9.026;2024-03-02T11:38:35;20.10;1.00
30150;DHT22;16962;48.646;9.026;2024-03-02T11:41:23;20.20;1.00
30150;DHT22;16962;48.646;9.026;2024-03-02T11:44:18;20.10;1.00
30150;DHT22;16962;48.646;9.026;2024-03-02T11:47:08;19.70;1.00
30150;DHT22;16962;48.646;9.026;2024-03-02T11:49:59;19.50;1.00
30150;DHT22;16962;48.646;9.026;2024-03-02T11:52:49;20.00;1.00
30150;DHT22;16962;48.646;9.026;2024-03-02T11:55:40;20.10;1.00
30150;DHT22;16962;48.646;9.026;2024-03-02T11:58:33;20.90;1.00
30150;DHT22;16962;48.646;9.026;2024-03-02T12:01:24;20.70;1.00
30150;DHT22;16962;48.646;9.026;2024-03-02T12:04:13;21.20;1.00
30150;DHT22;16962;48.646;9.026;2024-03-02T12:07:01;22.40;1.00
30150;DHT22;16962;48.646;9.026;2024-03-02T12:09:59;23.20;1.00
30150;DHT22;16962;48.646;9.026;2024-03-02T12:12:59;22.80;1.00
30150;DHT22;16962;48.646;9.026;2024-03-02T12:15:53;21.60;1.00
30150;DHT22;16962;48.646;9.026;2024-03-02T12:18:44;22.30;1.00
30150;DHT22;16962;48.646;9.026;2024-03-02T12:21:33;23.40;1.00
30150;DHT22;16962;48.646;9.026;2024-03-02T12:24:21;23.60;1.00
30150;DHT22;16962;48.646;9.026;2024-03-02T12:27:11;23.80;1.00
30150;DHT22;16962;48.646;9.026;2024-03-02T12:29:59;23.60;1.00
30150;DHT22;16962;48.646;9.026;2024-03-02T12:32:47;23.60;1.00
30150;DHT22;16962;48.646;9.026;2024-03-02T12:35:37;23.00;1.00
30150;DHT22;16962;48.646;9.026;2024-03-02T12:38:25;23.20;1.00
30150;DHT22;16962;48.646;9.026;2024-03-02T12:41:17;23.30;1.00
30150;DHT22;16962;48.646;9.026;2024-03-02T12:44:05;23.50;1.00
30150;DHT22;16962;48.646;9.026;2024-03-02T12:46:54;22.50;1.00
30150;DHT22;16962;48.646;9.026;2024-03-02T12:49:46;22.00;1.00
30150;DHT22;16962;48.646;9.026;2024-03-02T12:52:34;22.00;1.00
30150;DHT22;16962;48.646;9.026;2024-03-02T12:55:26;21.90;1.00
30150;DHT22;16962;48.646;9.026;2024-03-02T12:58:20;21.60;1.00
30150;DHT22;16962;48.646;9.026;2024-03-02T13:01:11;22.20;1.00
30150;DHT22;16962;48.646;9.026;2024-03-02T13:04:00;23.40;1.00
30150;DHT22;16962;48.646;9.026;2024-03-02T13:06:48;24.10;1.00
30150;DHT22;16962;48.646;9.026;2024-03-02T13:09:37;24.80;1.00
30150;DHT22;16962;48.646;9.026;2024-03-02T13:12:25;26.00;1.00
30150;DHT22;16962;48.646;9.026;2024-03-02T13:15:15;26.20;1.00
30150;DHT22;16962;48.646;9.026;2024-03-02T13:18:04;27.80;1.00
30150;DHT22;16962;48.646;9.026;2024-03-02T13:20:54;28.90;1.00
30150;DHT22;16962;48.646;9.026;2024-03-02T13:23:43;29.20;1.00
30150;DHT22;16962;48.646;9.026;2024-03-02T13:26:33;27.70;1.00
30150;DHT22;16962;48.646;9.026;2024-03-02T13:29:23;26.70;1.00
30150;DHT22;16962;48.646;9.026;2024-03-02T13:32:11;26.30;1.00
30150;DHT22;16962;48.646;9.026;2024-03-02T13:35:00;26.90;1.00
30150;DHT22;16962;48.646;9.026;2024-03-02T13:37:48;26.60;1.00
30150;DHT22;16962;48.646;9.026;2024-03-02T13:40:37;26.50;1.00
30150;DHT22;16962;48.646;9.026;2024-03-02T13:43:25;26.10;1.00
30150;DHT22;16962;48.646;9.026;2024-03-02T13:46:13;25.90;1.00
30150;DHT22;16962;48.646;9.026;2024-03-02T13:49:02;25.50;1.00
30150;DHT22;16962;48.646;9.026;2024-03-02T13:51:50;25.00;1.00
30150;DHT22;16962;48.646;9.026;2024-03-02T13:54:41;25.20;1.00
30150;DHT22;16962;48.646;9.026;2024-03-02T13:57:29;25.30;1.00
30150;DHT22;16962;48.646;9.026;2024-03-02T14:00:20;25.10;1.00
30150;DHT22;16962;48.646;9.026;2024-03-02T14:03:07;23.90;1.00
30150;DHT22;16962;48.646;9.026;2024-03-02T14:05:55;23.10;1.00
30150;DHT22;16962;48.646;9.026;2024-03-02T14:08:43;22.80;1.00
30150;DHT22;16962;48.646;9.026;2024-03-02T14:11:31;22.70;1.00
30150;DHT22;16962;48.646;9.026;2024-03-02T14:14:20;22.60;1.00
30150;DHT22;16962;48.646;9.026;2024-03-02T14:17:07;23.10;1.00
30150;DHT22;16962;48.646;9.026;2024-03-02T14:19:59;23.20;1.00
30150;DHT22;16962;48.646;9.026;2024-03-02T14:22:47;21.70;1.00
30150;DHT22;16962;48.646;9.026;2024-03-02T14:25:35;21.80;1.00
30150;DHT22;16962;48.646;9.026;2024-03-02T14:28:23;21.90;1.00
30150;DHT22;16962;48.646;9.026;2024-03-02T14:31:31;22.30;1.00
30150;DHT22;16962;48.646;9.026;2024-03-02T14:34:18;22.60;1.00
30150;DHT22;16962;48.646;9.026;2024-03-02T14:37:06;23.00;1.00
30150;DHT22;16962;48.646;9.026;2024-03-02T14:39:53;23.40;1.00
30150;DHT22;16962;48.646;9.026;2024-03-02T14:42:43;22.80;1.00
30150;DHT22;16962;48.646;9.026;2024-03-02T14:45:34;21.70;1.00
30150;DHT22;16962;48.646;9.026;2024-03-02T14:48:22;21.50;1.00
30150;DHT22;16962;48.646;9.026;2024-03-02T14:51:10;21.60;1.00
30150;DHT22;16962;48.646;9.026;2024-03-02T14:53:59;21.30;1.00
30150;DHT22;16962;48.646;9.026;2024-03-02T14:56:47;20.90;1.00
30150;DHT22;16962;48.646;9.026;2024-03-02T14:59:35;21.00;1.00
30150;DHT22;16962;48.646;9.026;2024-03-02T15:02:22;21.10;1.00
30150;DHT22;16962;48.646;9.026;2024-03-02T15:05:10;21.00;1.00
30150;DHT22;16962;48.646;9.026;2024-03-02T15:07:57;20.70;1.00
30150;DHT22;16962;48.646;9.026;2024-03-02T15:10:46;19.90;1.00
30150;DHT22;16962;48.646;9.026;2024-03-02T15:13:34;19.40;1.00
30150;DHT22;16962;48.646;9.026;2024-03-02T15:16:22;19.50;1.00
30150;DHT22;16962;48.646;9.026;2024-03-02T15:19:09;18.80;1.00
30150;DHT22;16962;48.646;9.026;2024-03-02T15:21:58;17.90;1.00
30150;DHT22;16962;48.646;9.026;2024-03-02T15:24:48;17.10;1.00
30150;DHT22;16962;48.646;9.026;2024-03-02T15:27:38;16.60;1.00
30150;DHT22;16962;48.646;9.026;2024-03-02T15:30:27;16.00;1.00
30150;DHT22;16962;48.646;9.026;2024-03-02T15:33:15;15.50;1.00
30150;DHT22;16962;48.646;9.026;2024-03-02T15:36:07;15.10;1.00
30150;DHT22;16962;48.646;9.026;2024-03-02T15:38:54;14.80;1.00
30150;DHT22;16962;48.646;9.026;2024-03-02T15:41:45;14.50;1.00
30150;DHT22;16962;48.646;9.026;2024-03-02T15:44:33;14.30;1.00
30150;DHT22;16962;48.646;9.026;2024-03-02T15:47:21;14.00;1.00
30150;DHT22;16962;48.646;9.026;2024-03-02T15:50:11;13.80;1.00
30150;DHT22;16962;48.646;9.026;2024-03-02T15:53:01;13.70;1.00
30150;DHT22;16962;48.646;9.026;2024-03-02T15:55:53;13.50;1.00
30150;DHT22;16962;48.646;9.026;2024-03-02T15:58:42;13.40;1.00
30150;DHT22;16962;48.646;9.026;2024-03-02T16:01:31;13.20;1.00
30150;DHT22;16962;48.646;9.026;2024-03-02T16:04:21;13.10;1.00
30150;DHT22;16962;48.646;9.026;2024-03-02T16:07:09;13.00;1.00
30150;DHT22;16962;48.646;9.026;2024-03-02T16:09:57;12.90;1.00
30150;DHT22;16962;48.646;9.026;2024-03-02T16:12:45;12.80;1.00
30150;DHT22;16962;48.646;9.026;2024-03-02T16:15:37;12.70;1.00
30150;DHT22;16962;48.646;9.026;2024-03-02T16:18:25;12.60;1.00
30150;DHT22;16962;48.646;9.026;2024-03-02T16:21:13;12.50;1.00
30150;DHT22;16962;48.646;9.026;2024-03-02T16:24:01;12.50;1.00
30150;DHT22;16962;48.646;9.026;2024-03-02T16:26:49;12.40;1.00
30150;DHT22;16962;48.646;9.026;2024-03-02T16:29:37;12.30;1.00
30150;DHT22;16962;48.646;9.026;2024-03-02T16:32:25;12.20;1.00
30150;DHT22;16962;48.646;9.026;2024-03-02T16:35:16;12.10;1.00
30150;DHT22;16962;48.646;9.026;2024-03-02T16:38:04;12.00;1.00
30150;DHT22;16962;48.646;9.026;2024-03-02T16:40:51;11.90;1.00
30150;DHT22;16962;48.646;9.026;2024-03-02T16:43:42;11.80;1.00
30150;DHT22;16962;48.646;9.026;2024-03-02T16:46:33;11.70;1.00
30150;DHT22;16962;48.646;9.026;2024-03-02T16:49:20;11.60;1.00
30150;DHT22;16962;48.646;9.026;2024-03-02T16:52:08;11.60;1.00
30150;DHT22;16962;48.646;9.026;2024-03-02T16:54:55;11.50;1.00
30150;DHT22;16962;48.646;9.026;2024-03-02T16:57:45;11.40;1.00
30150;DHT22;16962;48.646;9.026;2024-03-02T17:00:33;11.40;1.00
30150;DHT22;16962;48.646;9.026;2024-03-02T17:03:21;11.20;1.00
30150;DHT22;16962;48.646;9.026;2024-03-02T17:06:09;11.20;1.00
30150;DHT22;16962;48.646;9.026;2024-03-02T17:08:57;11.10;1.00
30150;DHT22;16962;48.646;9.026;2024-03-02T17:11:46;11.10;1.00
30150;DHT22;16962;48.646;9.026;2024-03-02T17:14:33;11.00;1.00
30150;DHT22;16962;48.646;9.026;2024-03-02T17:17:23;11.00;1.00
30150;DHT22;16962;48.646;9.026;2024-03-02T17:20:10;11.00;1.00
30150;DHT22;16962;48.646;9.026;2024-03-02T17:23:01;10.90;1.00
30150;DHT22;16962;48.646;9.026;2024-03-02T17:25:50;10.80;1.00
30150;DHT22;16962;48.646;9.026;2024-03-02T17:28:38;10.80;1.00
30150;DHT22;16962;48.646;9.026;2024-03-02T17:31:25;10.80;1.00
30150;DHT22;16962;48.646;9.026;2024-03-02T17:34:13;10.70;1.00
30150;DHT22;16962;48.646;9.026;2024-03-02T17:37:01;10.70;1.00
30150;DHT22;16962;48.646;9.026;2024-03-02T17:39:49;10.60;1.00
30150;DHT22;16962;48.646;9.026;2024-03-02T17:42:37;10.70;9.80
30150;DHT22;16962;48.646;9.026;2024-03-02T17:45:24;10.70;27.00
30150;DHT22;16962;48.646;9.026;2024-03-02T17:48:12;10.70;47.50
30150;DHT22;16962;48.646;9.026;2024-03-02T17:51:00;10.70;65.70
30150;DHT22;16962;48.646;9.026;2024-03-02T17:53:48;10.70;79.80
30150;DHT22;16962;48.646;9.026;2024-03-02T17:56:36;10.60;91.40
30150;DHT22;16962;48.646;9.026;2024-03-02T17:59:24;10.60;97.80
30150;DHT22;16962;48.646;9.026;2024-03-02T18:02:11;10.60;99.70
30150;DHT22;16962;48.646;9.026;2024-03-02T18:04:59;10.50;99.70
30150;DHT22;16962;48.646;9.026;2024-03-02T18:07:48;10.50;99.90
30150;DHT22;16962;48.646;9.026;2024-03-02T18:10:35;10.50;99.90
30150;DHT22;16962;48.646;9.026;2024-03-02T18:13:23;10.40;99.90